sensor_id;sensor_type;location;lat;lon;timestamp;pressure;altitude;pressure_sealevel;temperature;humidity
6833;BME280;3454;42.654;23.378;2023-07-20T00:00:37;65511.09;;;23.88;62.95
6833;BME280;3454;42.654;23.378;2023-07-20T00:03:14;65515.53;;;23.92;62.67
6833;BME280;3454;42.654;23.378;2023-07-20T00:05:45;65516.28;;;23.95;63.83
6833;BME280;3454;42.654;23.378;2023-07-20T00:08:11;65547.88;;;24.24;63.05
6833;BME280;3454;42.654;23.378;2023-07-20T00:10:36;65549.94;;;24.24;63.31
6833;BME280;3454;42.654;23.378;2023-07-20T00:13:02;65523.84;;;24.00;63.91
6833;BME280;3454;42.654;23.378;2023-07-20T00:15:27;65506.31;;;23.86;65.25
6833;BME280;3454;42.654;23.378;2023-07-20T00:17:53;65472.31;;;23.53;67.58
6833;BME280;3454;42.654;23.378;2023-07-20T00:20:18;65439.06;;;23.23;70.32
6833;BME280;3454;42.654;23.378;2023-07-20T00:22:44;65451.81;;;23.34;69.37
6833;BME280;3454;42.654;23.378;2023-07-20T00:25:10;65415.44;;;23.04;70.74
6833;BME280;3454;42.654;23.378;2023-07-20T00:27:39;65418.19;;;23.06;70.79
6833;BME280;3454;42.654;23.378;2023-07-20T00:30:05;65415.22;;;23.01;71.42
6833;BME280;3454;42.654;23.378;2023-07-20T00:32:31;65399.38;;;22.89;71.11
6833;BME280;3454;42.654;23.378;2023-07-20T00:34:56;65386.06;;;22.77;71.44
6833;BME280;3454;42.654;23.378;2023-07-20T00:37:22;65382.56;;;22.72;73.05
6833;BME280;3454;42.654;23.378;2023-07-20T00:39:47;65382.19;;;22.74;72.54
6833;BME280;3454;42.654;23.378;2023-07-20T00:42:13;65386.44;;;22.75;74.02
6833;BME280;3454;42.654;23.378;2023-07-20T00:44:39;65386.06;;;22.77;71.60
6833;BME280;3454;42.654;23.378;2023-07-20T00:47:05;65387.53;;;22.76;72.55
6833;BME280;3454;42.654;23.378;2023-07-20T00:49:31;65396.41;;;22.84;73.03
6833;BME280;3454;42.654;23.378;2023-07-20T00:52:00;65397.50;;;22.85;72.62
6833;BME280;3454;42.654;23.378;2023-07-20T00:54:27;65412.44;;;22.99;72.08
6833;BME280;3454;42.654;23.378;2023-07-20T00:56:53;65408.22;;;22.97;72.92
6833;BME280;3454;42.654;23.378;2023-07-20T00:59:20;65433.72;;;23.20;72.15
6833;BME280;3454;42.654;23.378;2023-07-20T01:01:46;65420.78;;;23.06;72.81
6833;BME280;3454;42.654;23.378;2023-07-20T01:04:12;65387.53;;;22.76;74.46
6833;BME280;3454;42.654;23.378;2023-07-20T01:09:26;65383.31;;;22.75;73.20
6833;BME280;3454;42.654;23.378;2023-07-20T01:14:27;65340.47;;;22.33;77.88
6833;BME280;3454;42.654;23.378;2023-07-20T01:16:53;65347.66;;;22.40;77.35
6833;BME280;3454;42.654;23.378;2023-07-20T01:19:18;65347.66;;;22.40;77.69
6833;BME280;3454;42.654;23.378;2023-07-20T01:22:06;65353.19;;;22.45;78.10
6833;BME280;3454;42.654;23.378;2023-07-20T01:24:39;65352.09;;;22.44;79.60
6833;BME280;3454;42.654;23.378;2023-07-20T01:32:09;65321.09;;;22.16;85.63
6833;BME280;3454;42.654;23.378;2023-07-20T01:34:36;65322.97;;;22.20;86.67
6833;BME280;3454;42.654;23.378;2023-07-20T01:37:05;65313.00;;;22.11;87.20
6833;BME280;3454;42.654;23.378;2023-07-20T01:39:32;65302.28;;;21.99;87.57
6833;BME280;3454;42.654;23.378;2023-07-20T01:41:58;65298.41;;;21.95;87.87
6833;BME280;3454;42.654;23.378;2023-07-20T01:44:24;65296.75;;;21.94;88.08
6833;BME280;3454;42.654;23.378;2023-07-20T01:46:50;65295.84;;;21.95;88.35
6833;BME280;3454;42.654;23.378;2023-07-20T01:49:15;65291.22;;;21.89;88.63
6833;BME280;3454;42.654;23.378;2023-07-20T01:51:41;65277.00;;;21.78;89.26
6833;BME280;3454;42.654;23.378;2023-07-20T01:54:06;65275.69;;;21.74;89.49
6833;BME280;3454;42.654;23.378;2023-07-20T01:56:31;65281.22;;;21.80;89.19
6833;BME280;3454;42.654;23.378;2023-07-20T01:58:57;65290.09;;;21.88;89.07
6833;BME280;3454;42.654;23.378;2023-07-20T02:01:23;65290.66;;;21.88;88.68
6833;BME280;3454;42.654;23.378;2023-07-20T02:03:48;65297.84;;;21.95;88.77
6833;BME280;3454;42.654;23.378;2023-07-20T02:06:14;65292.31;;;21.90;88.68
6833;BME280;3454;42.654;23.378;2023-07-20T02:08:39;65284.91;;;21.81;89.10
6833;BME280;3454;42.654;23.378;2023-07-20T02:11:04;65280.13;;;21.79;88.36
6833;BME280;3454;42.654;23.378;2023-07-20T02:13:30;65282.00;;;21.83;88.21
6833;BME280;3454;42.654;23.378;2023-07-20T02:15:56;65282.34;;;21.81;88.94
6833;BME280;3454;42.654;23.378;2023-07-20T02:18:22;65276.44;;;21.77;89.21
6833;BME280;3454;42.654;23.378;2023-07-20T02:20:47;65276.63;;;21.73;89.93
6833;BME280;3454;42.654;23.378;2023-07-20T02:23:13;65267.06;;;21.69;90.67
6833;BME280;3454;42.654;23.378;2023-07-20T02:25:39;65260.78;;;21.61;89.81
6833;BME280;3454;42.654;23.378;2023-07-20T02:28:04;65282.91;;;21.81;89.49
6833;BME280;3454;42.654;23.378;2023-07-20T02:30:30;65288.66;;;21.89;88.10
6833;BME280;3454;42.654;23.378;2023-07-20T02:32:56;65268.72;;;21.70;89.45
6833;BME280;3454;42.654;23.378;2023-07-20T02:35:24;65282.34;;;21.81;88.92
6833;BME280;3454;42.654;23.378;2023-07-20T02:37:49;65281.22;;;21.80;88.49
6833;BME280;3454;42.654;23.378;2023-07-20T02:40:15;65281.56;;;21.77;88.22
6833;BME280;3454;42.654;23.378;2023-07-20T02:42:40;65279.00;;;21.77;88.77
6833;BME280;3454;42.654;23.378;2023-07-20T02:45:07;65303.41;;;22.00;87.07
6833;BME280;3454;42.654;23.378;2023-07-20T02:47:32;65313.13;;;22.06;86.15
6833;BME280;3454;42.654;23.378;2023-07-20T02:49:59;65279.00;;;21.77;87.02
6833;BME280;3454;42.654;23.378;2023-07-20T02:52:24;65282.34;;;21.81;87.80
6833;BME280;3454;42.654;23.378;2023-07-20T02:54:50;65282.34;;;21.81;87.17
6833;BME280;3454;42.654;23.378;2023-07-20T02:57:16;65269.81;;;21.71;87.51
6833;BME280;3454;42.654;23.378;2023-07-20T02:59:41;65272.19;;;21.69;88.29
6833;BME280;3454;42.654;23.378;2023-07-20T03:02:07;65271.28;;;21.70;88.76
6833;BME280;3454;42.654;23.378;2023-07-20T03:04:35;65267.59;;;21.69;89.07
6833;BME280;3454;42.654;23.378;2023-07-20T03:07:04;65265.38;;;21.67;89.16
6833;BME280;3454;42.654;23.378;2023-07-20T03:09:29;65269.06;;;21.68;89.10
6833;BME280;3454;42.654;23.378;2023-07-20T03:11:55;65275.69;;;21.74;89.12
6833;BME280;3454;42.654;23.378;2023-07-20T03:14:20;65279.00;;;21.77;88.78
6833;BME280;3454;42.654;23.378;2023-07-20T03:16:46;65282.69;;;21.79;88.93
6833;BME280;3454;42.654;23.378;2023-07-20T03:19:11;65286.44;;;21.87;88.07
6833;BME280;3454;42.654;23.378;2023-07-20T03:21:37;65257.78;;;21.56;90.79
6833;BME280;3454;42.654;23.378;2023-07-20T03:24:07;65236.44;;;21.39;93.15
6833;BME280;3454;42.654;23.378;2023-07-20T03:26:33;65272.38;;;21.71;90.16
6833;BME280;3454;42.654;23.378;2023-07-20T03:28:58;65264.44;;;21.62;91.19
6833;BME280;3454;42.654;23.378;2023-07-20T03:31:24;65266.09;;;21.63;91.85
6833;BME280;3454;42.654;23.378;2023-07-20T03:33:50;65266.09;;;21.63;91.12
6833;BME280;3454;42.654;23.378;2023-07-20T03:36:15;65286.22;;;21.84;90.69
6833;BME280;3454;42.654;23.378;2023-07-20T03:38:41;65298.63;;;21.98;89.02
6833;BME280;3454;42.654;23.378;2023-07-20T03:41:08;65305.78;;;22.04;88.59
6833;BME280;3454;42.654;23.378;2023-07-20T03:43:35;65295.28;;;21.95;89.06
6833;BME280;3454;42.654;23.378;2023-07-20T03:46:01;65269.97;;;21.67;91.85
6833;BME280;3454;42.654;23.378;2023-07-20T03:48:32;65302.47;;;22.01;90.13
6833;BME280;3454;42.654;23.378;2023-07-20T03:50:57;65305.78;;;22.04;89.97
6833;BME280;3454;42.654;23.378;2023-07-20T03:53:23;65295.06;;;21.92;91.81
6833;BME280;3454;42.654;23.378;2023-07-20T03:55:51;65289.34;;;21.85;91.93
6833;BME280;3454;42.654;23.378;2023-07-20T03:58:18;65321.84;;;22.19;89.87
6833;BME280;3454;42.654;23.378;2023-07-20T04:00:48;65340.81;;;22.31;88.51
6833;BME280;3454;42.654;23.378;2023-07-20T04:03:14;65324.06;;;22.21;89.08
6833;BME280;3454;42.654;23.378;2023-07-20T04:05:40;65313.00;;;22.11;89.88
6833;BME280;3454;42.654;23.378;2023-07-20T04:08:05;65300.81;;;22.00;90.53
6833;BME280;3454;42.654;23.378;2023-07-20T04:10:31;65315.19;;;22.13;89.68
6833;BME280;3454;42.654;23.378;2023-07-20T04:12:56;65303.03;;;22.02;90.27
6833;BME280;3454;42.654;23.378;2023-07-20T04:15:22;65285.66;;;21.84;91.10
6833;BME280;3454;42.654;23.378;2023-07-20T04:17:48;65276.63;;;21.73;93.04
6833;BME280;3454;42.654;23.378;2023-07-20T04:20:13;65303.41;;;22.00;91.51
6833;BME280;3454;42.654;23.378;2023-07-20T04:22:39;65305.03;;;22.01;91.47
6833;BME280;3454;42.654;23.378;2023-07-20T04:25:05;65287.53;;;21.88;91.92
6833;BME280;3454;42.654;23.378;2023-07-20T04:27:31;65290.31;;;21.90;92.40
6833;BME280;3454;42.654;23.378;2023-07-20T04:30:00;65287.88;;;21.86;92.17
6833;BME280;3454;42.654;23.378;2023-07-20T04:32:25;65303.56;;;22.02;92.01
6833;BME280;3454;42.654;23.378;2023-07-20T04:34:51;65300.06;;;21.97;91.55
6833;BME280;3454;42.654;23.378;2023-07-20T04:37:17;65298.63;;;21.98;91.00
6833;BME280;3454;42.654;23.378;2023-07-20T04:39:42;65308.91;;;22.05;91.17
6833;BME280;3454;42.654;23.378;2023-07-20T04:42:08;65313.00;;;22.11;90.78
6833;BME280;3454;42.654;23.378;2023-07-20T04:44:33;65301.19;;;21.98;91.70
6833;BME280;3454;42.654;23.378;2023-07-20T04:46:59;65294.19;;;21.94;90.68
6833;BME280;3454;42.654;23.378;2023-07-20T04:49:24;65291.56;;;21.87;89.32
6833;BME280;3454;42.654;23.378;2023-07-20T04:51:50;65279.22;;;21.80;88.79
6833;BME280;3454;42.654;23.378;2023-07-20T04:54:16;65293.44;;;21.91;87.62
6833;BME280;3454;42.654;23.378;2023-07-20T04:56:43;65284.78;;;21.85;85.66
6833;BME280;3454;42.654;23.378;2023-07-20T04:59:09;65275.13;;;21.74;85.73
6833;BME280;3454;42.654;23.378;2023-07-20T05:01:34;65269.63;;;21.69;85.38
6833;BME280;3454;42.654;23.378;2023-07-20T05:04:01;65270.91;;;21.72;85.35
6833;BME280;3454;42.654;23.378;2023-07-20T05:06:26;65274.59;;;21.73;87.30
6833;BME280;3454;42.654;23.378;2023-07-20T05:08:52;65281.44;;;21.82;85.12
6833;BME280;3454;42.654;23.378;2023-07-20T05:11:18;65309.69;;;22.08;85.87
6833;BME280;3454;42.654;23.378;2023-07-20T05:13:43;65344.88;;;22.37;84.55
6833;BME280;3454;42.654;23.378;2023-07-20T05:16:09;65364.25;;;22.55;84.29
6833;BME280;3454;42.654;23.378;2023-07-20T05:18:34;65374.44;;;22.67;82.47
6833;BME280;3454;42.654;23.378;2023-07-20T05:21:00;65382.56;;;22.72;84.65
6833;BME280;3454;42.654;23.378;2023-07-20T05:23:25;65390.28;;;22.79;86.13
6833;BME280;3454;42.654;23.378;2023-07-20T05:25:54;65402.50;;;22.90;84.66
6833;BME280;3454;42.654;23.378;2023-07-20T05:28:22;65401.56;;;22.91;84.64
6833;BME280;3454;42.654;23.378;2023-07-20T05:30:48;65414.66;;;23.01;82.91
6833;BME280;3454;42.654;23.378;2023-07-20T05:33:13;65405.81;;;22.93;82.98
6833;BME280;3454;42.654;23.378;2023-07-20T05:35:39;65404.91;;;22.94;81.97
6833;BME280;3454;42.654;23.378;2023-07-20T05:38:05;65391.25;;;22.84;79.41
6833;BME280;3454;42.654;23.378;2023-07-20T05:40:31;65388.09;;;22.77;80.81
6833;BME280;3454;42.654;23.378;2023-07-20T05:42:57;65390.84;;;22.79;79.35
6833;BME280;3454;42.654;23.378;2023-07-20T05:45:24;65399.38;;;22.89;78.03
6833;BME280;3454;42.654;23.378;2023-07-20T05:47:50;65377.00;;;22.67;79.71
6833;BME280;3454;42.654;23.378;2023-07-20T05:50:15;65391.63;;;22.82;79.01
6833;BME280;3454;42.654;23.378;2023-07-20T05:52:41;65414.66;;;23.01;76.66
6833;BME280;3454;42.654;23.378;2023-07-20T05:55:07;65402.50;;;22.90;78.46
6833;BME280;3454;42.654;23.378;2023-07-20T05:57:33;65395.28;;;22.83;81.54
6833;BME280;3454;42.654;23.378;2023-07-20T05:59:59;65404.56;;;22.96;80.88
6833;BME280;3454;42.654;23.378;2023-07-20T06:02:24;65411.34;;;22.98;81.28
6833;BME280;3454;42.654;23.378;2023-07-20T06:04:50;65419.66;;;23.05;80.47
6833;BME280;3454;42.654;23.378;2023-07-20T06:07:15;65453.09;;;23.38;77.13
6833;BME280;3454;42.654;23.378;2023-07-20T06:09:41;65442.00;;;23.28;78.45
6833;BME280;3454;42.654;23.378;2023-07-20T06:12:08;65436.84;;;23.21;79.85
6833;BME280;3454;42.654;23.378;2023-07-20T06:14:34;65446.47;;;23.32;78.64
6833;BME280;3454;42.654;23.378;2023-07-20T06:17:00;65439.22;;;23.25;78.10
6833;BME280;3454;42.654;23.378;2023-07-20T06:19:26;65432.59;;;23.19;78.05
6833;BME280;3454;42.654;23.378;2023-07-20T06:21:51;65443.13;;;23.29;78.65
6833;BME280;3454;42.654;23.378;2023-07-20T06:24:17;65458.47;;;23.41;77.57
6833;BME280;3454;42.654;23.378;2023-07-20T06:26:43;65464.75;;;23.49;77.92
6833;BME280;3454;42.654;23.378;2023-07-20T06:29:08;65507.78;;;23.85;76.53
6833;BME280;3454;42.654;23.378;2023-07-20T06:31:35;65522.38;;;24.01;73.71
6833;BME280;3454;42.654;23.378;2023-07-20T06:34:01;65540.69;;;24.17;73.87
6833;BME280;3454;42.654;23.378;2023-07-20T06:36:27;65514.06;;;23.93;73.79
6833;BME280;3454;42.654;23.378;2023-07-20T06:38:53;65490.59;;;23.70;75.26
6833;BME280;3454;42.654;23.378;2023-07-20T06:41:19;65511.66;;;23.89;74.76
6833;BME280;3454;42.654;23.378;2023-07-20T06:43:45;65526.28;;;24.04;75.13
6833;BME280;3454;42.654;23.378;2023-07-20T06:46:10;65541.06;;;24.15;74.29
6833;BME280;3454;42.654;23.378;2023-07-20T06:48:36;65535.72;;;24.13;74.87
6833;BME280;3454;42.654;23.378;2023-07-20T06:51:01;65532.38;;;24.10;73.95
6833;BME280;3454;42.654;23.378;2023-07-20T06:53:28;65535.34;;;24.15;75.02
6833;BME280;3454;42.654;23.378;2023-07-20T06:55:53;65542.34;;;24.19;75.06
6833;BME280;3454;42.654;23.378;2023-07-20T06:58:19;65564.53;;;24.39;74.86
6833;BME280;3454;42.654;23.378;2023-07-20T07:00:46;65579.50;;;24.53;76.10
6833;BME280;3454;42.654;23.378;2023-07-20T07:03:12;65588.94;;;24.61;74.98
6833;BME280;3454;42.654;23.378;2023-07-20T07:05:38;65616.69;;;24.86;73.27
6833;BME280;3454;42.654;23.378;2023-07-20T07:08:05;65658.09;;;25.22;71.78
6833;BME280;3454;42.654;23.378;2023-07-20T07:10:31;65686.41;;;25.47;71.96
6833;BME280;3454;42.654;23.378;2023-07-20T07:12:57;65693.28;;;25.56;72.27
6833;BME280;3454;42.654;23.378;2023-07-20T07:15:22;65692.72;;;25.55;71.94
6833;BME280;3454;42.654;23.378;2023-07-20T07:17:48;65662.75;;;25.28;72.62
6833;BME280;3454;42.654;23.378;2023-07-20T07:20:13;65624.25;;;24.91;72.54
6833;BME280;3454;42.654;23.378;2023-07-20T07:22:39;65610.59;;;24.81;73.44
6833;BME280;3454;42.654;23.378;2023-07-20T07:25:05;65597.81;;;24.69;74.66
6833;BME280;3454;42.654;23.378;2023-07-20T07:27:30;65628.88;;;24.97;74.99
6833;BME280;3454;42.654;23.378;2023-07-20T07:29:56;65643.13;;;25.08;73.10
6833;BME280;3454;42.654;23.378;2023-07-20T07:32:22;65689.97;;;25.53;72.54
6833;BME280;3454;42.654;23.378;2023-07-20T07:34:47;65679.41;;;25.43;70.38
6833;BME280;3454;42.654;23.378;2023-07-20T07:37:14;65686.63;;;25.50;68.79
6833;BME280;3454;42.654;23.378;2023-07-20T07:39:39;65688.84;;;25.52;68.50
6833;BME280;3454;42.654;23.378;2023-07-20T07:42:05;65726.94;;;25.84;69.34
6833;BME280;3454;42.654;23.378;2023-07-20T07:44:31;65755.13;;;26.14;67.90
6833;BME280;3454;42.654;23.378;2023-07-20T07:46:57;65793.44;;;26.49;64.67
6833;BME280;3454;42.654;23.378;2023-07-20T07:49:23;65782.13;;;26.36;66.81
6833;BME280;3454;42.654;23.378;2023-07-20T07:51:48;65811.78;;;26.66;65.26
6833;BME280;3454;42.654;23.378;2023-07-20T07:54:14;65824.94;;;26.75;65.81
6833;BME280;3454;42.654;23.378;2023-07-20T07:56:40;65847.38;;;26.98;63.81
6833;BME280;3454;42.654;23.378;2023-07-20T07:59:07;65839.94;;;26.89;62.43
6833;BME280;3454;42.654;23.378;2023-07-20T08:01:32;65800.09;;;26.55;61.44
6833;BME280;3454;42.654;23.378;2023-07-20T08:03:58;65793.63;;;26.51;62.82
6833;BME280;3454;42.654;23.378;2023-07-20T08:06:23;65824.38;;;26.75;62.58
6833;BME280;3454;42.654;23.378;2023-07-20T08:08:50;65827.34;;;26.80;63.78
6833;BME280;3454;42.654;23.378;2023-07-20T08:11:15;65832.72;;;26.82;63.88
6833;BME280;3454;42.654;23.378;2023-07-20T08:13:42;65846.06;;;26.94;62.83
6833;BME280;3454;42.654;23.378;2023-07-20T08:16:07;65836.63;;;26.86;63.15
6833;BME280;3454;42.654;23.378;2023-07-20T08:18:32;65823.28;;;26.74;62.78
6833;BME280;3454;42.654;23.378;2023-07-20T08:20:58;65842.34;;;26.93;63.70
6833;BME280;3454;42.654;23.378;2023-07-20T08:23:23;65857.38;;;27.07;63.98
6833;BME280;3454;42.654;23.378;2023-07-20T08:25:49;65829.03;;;26.81;63.14
6833;BME280;3454;42.654;23.378;2023-07-20T08:28:15;65821.63;;;26.72;64.96
6833;BME280;3454;42.654;23.378;2023-07-20T08:30:41;65836.63;;;26.86;65.89
6833;BME280;3454;42.654;23.378;2023-07-20T08:33:08;65823.84;;;26.74;66.91
6833;BME280;3454;42.654;23.378;2023-07-20T08:35:34;65841.06;;;26.90;68.97
6833;BME280;3454;42.654;23.378;2023-07-20T08:37:59;65844.94;;;26.93;66.15
6833;BME280;3454;42.654;23.378;2023-07-20T08:40:25;65811.22;;;26.65;65.65
6833;BME280;3454;42.654;23.378;2023-07-20T08:42:50;65782.69;;;26.37;64.88
6833;BME280;3454;42.654;23.378;2023-07-20T08:45:17;65811.59;;;26.63;65.05
6833;BME280;3454;42.654;23.378;2023-07-20T08:47:44;65785.69;;;26.42;61.53
6833;BME280;3454;42.654;23.378;2023-07-20T08:50:11;65809.38;;;26.61;62.20
6833;BME280;3454;42.654;23.378;2023-07-20T08:52:37;65794.94;;;26.48;60.61
6833;BME280;3454;42.654;23.378;2023-07-20T08:55:03;65810.84;;;26.60;59.77
6833;BME280;3454;42.654;23.378;2023-07-20T08:57:32;65809.19;;;26.66;58.61
6833;BME280;3454;42.654;23.378;2023-07-20T09:00:00;65815.09;;;26.69;58.13
6833;BME280;3454;42.654;23.378;2023-07-20T09:02:31;65817.91;;;26.71;58.59
6833;BME280;3454;42.654;23.378;2023-07-20T09:05:00;65811.03;;;26.62;56.99
6833;BME280;3454;42.654;23.378;2023-07-20T09:07:26;65810.84;;;26.67;56.91
6833;BME280;3454;42.654;23.378;2023-07-20T09:09:52;65823.28;;;26.74;56.67
6833;BME280;3454;42.654;23.378;2023-07-20T09:12:17;65828.81;;;26.79;55.84
6833;BME280;3454;42.654;23.378;2023-07-20T09:14:44;65833.47;;;26.85;55.86
6833;BME280;3454;42.654;23.378;2023-07-20T09:17:13;65847.16;;;26.95;54.57
6833;BME280;3454;42.654;23.378;2023-07-20T09:19:48;65842.72;;;26.91;54.18
6833;BME280;3454;42.654;23.378;2023-07-20T09:22:21;65854.78;;;27.07;53.35
6833;BME280;3454;42.654;23.378;2023-07-20T09:24:46;65853.28;;;27.01;52.73
6833;BME280;3454;42.654;23.378;2023-07-20T09:27:12;65892.97;;;27.39;52.86
6833;BME280;3454;42.654;23.378;2023-07-20T09:29:48;65919.09;;;27.63;50.78
6833;BME280;3454;42.654;23.378;2023-07-20T09:32:18;65982.34;;;28.17;50.61
6833;BME280;3454;42.654;23.378;2023-07-20T09:34:46;65973.06;;;28.11;50.21
6833;BME280;3454;42.654;23.378;2023-07-20T09:37:11;65928.56;;;27.71;48.96
6833;BME280;3454;42.654;23.378;2023-07-20T09:39:44;65953.38;;;27.91;49.32
6833;BME280;3454;42.654;23.378;2023-07-20T09:42:13;65958.59;;;27.98;49.50
6833;BME280;3454;42.654;23.378;2023-07-20T09:44:39;66012.38;;;28.45;49.21
6833;BME280;3454;42.654;23.378;2023-07-20T09:47:06;65981.22;;;28.16;48.14
6833;BME280;3454;42.654;23.378;2023-07-20T09:49:32;66000.31;;;28.36;48.05
6833;BME280;3454;42.654;23.378;2023-07-20T09:51:58;65999.75;;;28.36;46.97
6833;BME280;3454;42.654;23.378;2023-07-20T09:54:26;66022.38;;;28.54;45.87
6833;BME280;3454;42.654;23.378;2023-07-20T09:56:53;66026.50;;;28.60;44.28
6833;BME280;3454;42.654;23.378;2023-07-20T09:59:20;66023.91;;;28.60;44.95
6833;BME280;3454;42.654;23.378;2023-07-20T10:01:46;66088.09;;;29.13;45.34
6833;BME280;3454;42.654;23.378;2023-07-20T10:04:14;66019.03;;;28.51;45.27
6833;BME280;3454;42.654;23.378;2023-07-20T10:06:42;65971.22;;;28.07;45.55
6833;BME280;3454;42.654;23.378;2023-07-20T10:09:10;65908.91;;;27.51;46.26
6833;BME280;3454;42.654;23.378;2023-07-20T10:11:40;65886.44;;;27.28;46.13
6833;BME280;3454;42.654;23.378;2023-07-20T10:14:08;65867.00;;;27.11;46.28
6833;BME280;3454;42.654;23.378;2023-07-20T10:16:49;65854.59;;;27.04;45.96
6833;BME280;3454;42.654;23.378;2023-07-20T10:21:54;65836.06;;;26.85;47.78
6833;BME280;3454;42.654;23.378;2023-07-20T10:24:23;65842.16;;;26.91;47.91
6833;BME280;3454;42.654;23.378;2023-07-20T10:26:50;65841.06;;;26.90;47.10
6833;BME280;3454;42.654;23.378;2023-07-20T10:29:16;65844.78;;;26.98;47.50
6833;BME280;3454;42.654;23.378;2023-07-20T10:31:42;65848.81;;;26.97;48.72
6833;BME280;3454;42.654;23.378;2023-07-20T10:34:09;65845.50;;;26.94;48.55
6833;BME280;3454;42.654;23.378;2023-07-20T10:36:46;65851.06;;;26.99;47.95
6833;BME280;3454;42.654;23.378;2023-07-20T10:39:28;65866.06;;;27.12;47.84
6833;BME280;3454;42.654;23.378;2023-07-20T10:42:09;65856.06;;;27.03;47.57
6833;BME280;3454;42.654;23.378;2023-07-20T10:44:39;65857.38;;;27.07;48.04
6833;BME280;3454;42.654;23.378;2023-07-20T10:47:11;65859.59;;;27.09;47.41
6833;BME280;3454;42.654;23.378;2023-07-20T10:49:57;65864.41;;;27.11;47.76
6833;BME280;3454;42.654;23.378;2023-07-20T10:52:23;65902.22;;;27.45;48.72
6833;BME280;3454;42.654;23.378;2023-07-20T10:54:48;65916.69;;;27.58;50.52
6833;BME280;3454;42.654;23.378;2023-07-20T10:57:31;65872.94;;;27.21;47.83
6833;BME280;3454;42.654;23.378;2023-07-20T11:00:13;65873.47;;;27.21;48.73
6833;BME280;3454;42.654;23.378;2023-07-20T11:02:43;65903.34;;;27.46;51.38
6833;BME280;3454;42.654;23.378;2023-07-20T11:08:03;65916.13;;;27.58;53.21
6833;BME280;3454;42.654;23.378;2023-07-20T11:10:29;65915.56;;;27.57;50.83
6833;BME280;3454;42.654;23.378;2023-07-20T11:18:12;66024.06;;;28.55;49.63
6833;BME280;3454;42.654;23.378;2023-07-20T11:20:38;66031.88;;;28.62;48.08
6833;BME280;3454;42.654;23.378;2023-07-20T11:23:05;66043.19;;;28.75;47.66
6833;BME280;3454;42.654;23.378;2023-07-20T11:25:40;66055.81;;;28.84;46.32
6833;BME280;3454;42.654;23.378;2023-07-20T11:28:09;66117.25;;;29.42;47.56
6833;BME280;3454;42.654;23.378;2023-07-20T11:30:37;66111.84;;;29.39;47.54
6833;BME280;3454;42.654;23.378;2023-07-20T11:33:04;66108.91;;;29.34;47.76
6833;BME280;3454;42.654;23.378;2023-07-20T11:35:30;66112.22;;;29.37;46.35
6833;BME280;3454;42.654;23.378;2023-07-20T11:37:56;66176.13;;;29.93;47.22
6833;BME280;3454;42.654;23.378;2023-07-20T11:40:25;66238.19;;;30.51;47.12
6833;BME280;3454;42.654;23.378;2023-07-20T11:42:50;66290.25;;;31.00;46.16
6833;BME280;3454;42.654;23.378;2023-07-20T11:45:17;66265.50;;;30.76;44.05
6833;BME280;3454;42.654;23.378;2023-07-20T11:47:43;66278.34;;;30.87;44.02
6833;BME280;3454;42.654;23.378;2023-07-20T11:50:10;66281.69;;;30.90;45.10
6833;BME280;3454;42.654;23.378;2023-07-20T11:52:36;66259.38;;;30.70;43.87
6833;BME280;3454;42.654;23.378;2023-07-20T11:55:03;66261.59;;;30.72;44.05
6833;BME280;3454;42.654;23.378;2023-07-20T11:57:29;66304.56;;;31.11;43.36
6833;BME280;3454;42.654;23.378;2023-07-20T11:59:56;66339.72;;;31.42;43.60
6833;BME280;3454;42.654;23.378;2023-07-20T12:02:23;66325.75;;;31.30;43.52
6833;BME280;3454;42.654;23.378;2023-07-20T12:04:51;66335.03;;;31.36;43.35
6833;BME280;3454;42.654;23.378;2023-07-20T12:07:21;66410.22;;;32.08;44.47
6833;BME280;3454;42.654;23.378;2023-07-20T12:10:26;66404.06;;;32.03;41.13
6833;BME280;3454;42.654;23.378;2023-07-20T12:12:53;66367.59;;;31.68;40.47
6833;BME280;3454;42.654;23.378;2023-07-20T12:15:24;66451.72;;;32.48;42.39
6833;BME280;3454;42.654;23.378;2023-07-20T12:17:53;66487.28;;;32.78;41.00
6833;BME280;3454;42.654;23.378;2023-07-20T12:23:08;66429.75;;;32.26;39.89
6833;BME280;3454;42.654;23.378;2023-07-20T12:25:37;66397.75;;;31.95;38.63
6833;BME280;3454;42.654;23.378;2023-07-20T12:28:09;66416.00;;;32.09;38.93
6833;BME280;3454;42.654;23.378;2023-07-20T12:30:34;66488.22;;;32.76;40.69
6833;BME280;3454;42.654;23.378;2023-07-20T12:33:02;66467.00;;;32.57;37.14
6833;BME280;3454;42.654;23.378;2023-07-20T12:35:29;66381.72;;;31.83;36.28
6833;BME280;3454;42.654;23.378;2023-07-20T12:37:55;66395.16;;;31.95;37.30
6833;BME280;3454;42.654;23.378;2023-07-20T12:40:20;66382.69;;;31.81;37.27
6833;BME280;3454;42.654;23.378;2023-07-20T12:42:46;66449.09;;;32.41;37.49
6833;BME280;3454;42.654;23.378;2023-07-20T12:45:13;66447.06;;;32.42;36.29
6833;BME280;3454;42.654;23.378;2023-07-20T12:47:39;66429.56;;;32.23;36.18
6833;BME280;3454;42.654;23.378;2023-07-20T12:50:06;66462.72;;;32.56;36.81
6833;BME280;3454;42.654;23.378;2023-07-20T12:52:35;66515.75;;;33.03;36.43
6833;BME280;3454;42.654;23.378;2023-07-20T12:55:02;66517.28;;;33.02;34.30
6833;BME280;3454;42.654;23.378;2023-07-20T12:57:27;66455.25;;;32.47;33.02
6833;BME280;3454;42.654;23.378;2023-07-20T12:59:53;66419.69;;;32.17;32.04
6833;BME280;3454;42.654;23.378;2023-07-20T13:02:19;66422.88;;;32.17;32.87
6833;BME280;3454;42.654;23.378;2023-07-20T13:04:44;66480.38;;;32.69;33.06
6833;BME280;3454;42.654;23.378;2023-07-20T13:07:10;66450.22;;;32.42;32.76
6833;BME280;3454;42.654;23.378;2023-07-20T13:09:37;66465.13;;;32.53;33.49
6833;BME280;3454;42.654;23.378;2023-07-20T13:12:03;66458.63;;;32.50;33.21
6833;BME280;3454;42.654;23.378;2023-07-20T13:14:30;66518.94;;;33.04;34.70
6833;BME280;3454;42.654;23.378;2023-07-20T13:16:56;66503.28;;;32.90;34.39
6833;BME280;3454;42.654;23.378;2023-07-20T13:19:21;66488.94;;;32.79;34.21
6833;BME280;3454;42.654;23.378;2023-07-20T13:21:47;66486.53;;;32.75;34.59
6833;BME280;3454;42.654;23.378;2023-07-20T13:24:13;66525.66;;;33.10;34.77
6833;BME280;3454;42.654;23.378;2023-07-20T13:26:40;66525.81;;;33.13;35.23
6833;BME280;3454;42.654;23.378;2023-07-20T13:29:06;66493.59;;;32.86;34.95
6833;BME280;3454;42.654;23.378;2023-07-20T13:31:31;66543.13;;;33.28;34.75